sensor_id;sensor_type;location;lat;lon;timestamp;temperature;humidity
46356;DHT22;32066;49.474;11.106;2022-07-23T00:00:29;25.10;61.90
46356;DHT22;32066;49.474;11.106;2022-07-23T00:02:58;25.00;61.90
46356;DHT22;32066;49.474;11.106;2022-07-23T00:05:25;25.00;61.90
46356;DHT22;32066;49.474;11.106;2022-07-23T00:07:52;24.90;63.30
46356;DHT22;32066;49.474;11.106;2022-07-23T00:10:19;24.80;63.70
46356;DHT22;32066;49.474;11.106;2022-07-23T00:12:46;24.80;64.00
46356;DHT22;32066;49.474;11.106;2022-07-23T00:15:13;24.80;63.90
46356;DHT22;32066;49.474;11.106;2022-07-23T00:17:39;24.70;64.70
46356;DHT22;32066;49.474;11.106;2022-07-23T00:20:09;24.70;63.20
46356;DHT22;32066;49.474;11.106;2022-07-23T00:22:35;24.70;62.60
46356;DHT22;32066;49.474;11.106;2022-07-23T00:25:03;24.60;62.20
46356;DHT22;32066;49.474;11.106;2022-07-23T00:27:30;24.60;62.90
46356;DHT22;32066;49.474;11.106;2022-07-23T00:29:57;24.50;63.00
46356;DHT22;32066;49.474;11.106;2022-07-23T00:32:23;24.50;64.00
46356;DHT22;32066;49.474;11.106;2022-07-23T00:34:50;24.40;63.80
46356;DHT22;32066;49.474;11.106;2022-07-23T00:37:18;24.60;63.50
46356;DHT22;32066;49.474;11.106;2022-07-23T00:39:45;24.60;62.40
46356;DHT22;32066;49.474;11.106;2022-07-23T00:42:12;24.50;62.60
46356;DHT22;32066;49.474;11.106;2022-07-23T00:44:39;24.30;63.70
46356;DHT22;32066;49.474;11.106;2022-07-23T00:47:06;24.30;64.40
46356;DHT22;32066;49.474;11.106;2022-07-23T00:49:33;24.50;63.50
46356;DHT22;32066;49.474;11.106;2022-07-23T00:52:01;24.30;64.00
46356;DHT22;32066;49.474;11.106;2022-07-23T00:54:30;24.20;64.60
46356;DHT22;32066;49.474;11.106;2022-07-23T00:56:57;24.10;64.80
46356;DHT22;32066;49.474;11.106;2022-07-23T00:59:24;24.20;64.60
46356;DHT22;32066;49.474;11.106;2022-07-23T01:01:51;24.20;66.20
46356;DHT22;32066;49.474;11.106;2022-07-23T01:04:18;24.10;66.30
46356;DHT22;32066;49.474;11.106;2022-07-23T01:06:45;24.00;65.90
46356;DHT22;32066;49.474;11.106;2022-07-23T01:09:12;24.10;65.20
46356;DHT22;32066;49.474;11.106;2022-07-23T01:11:41;24.00;66.10
46356;DHT22;32066;49.474;11.106;2022-07-23T01:14:11;24.00;65.40
46356;DHT22;32066;49.474;11.106;2022-07-23T01:16:38;24.00;65.80
46356;DHT22;32066;49.474;11.106;2022-07-23T01:19:05;24.10;65.90
46356;DHT22;32066;49.474;11.106;2022-07-23T01:21:35;24.10;66.40
46356;DHT22;32066;49.474;11.106;2022-07-23T01:24:05;24.00;66.90
46356;DHT22;32066;49.474;11.106;2022-07-23T01:26:37;23.90;67.60
46356;DHT22;32066;49.474;11.106;2022-07-23T01:29:04;23.90;67.50
46356;DHT22;32066;49.474;11.106;2022-07-23T01:31:32;23.90;67.90
46356;DHT22;32066;49.474;11.106;2022-07-23T01:33:59;23.90;68.10
46356;DHT22;32066;49.474;11.106;2022-07-23T01:36:27;23.90;68.80
46356;DHT22;32066;49.474;11.106;2022-07-23T01:38:55;23.90;68.70
46356;DHT22;32066;49.474;11.106;2022-07-23T01:41:23;23.90;68.90
46356;DHT22;32066;49.474;11.106;2022-07-23T01:43:50;23.80;68.90
46356;DHT22;32066;49.474;11.106;2022-07-23T01:46:17;23.80;69.10
46356;DHT22;32066;49.474;11.106;2022-07-23T01:48:47;23.80;70.00
46356;DHT22;32066;49.474;11.106;2022-07-23T01:51:25;23.70;69.40
46356;DHT22;32066;49.474;11.106;2022-07-23T01:54:04;23.80;69.80
46356;DHT22;32066;49.474;11.106;2022-07-23T01:56:32;23.50;71.00
46356;DHT22;32066;49.474;11.106;2022-07-23T01:58:59;23.50;71.20
46356;DHT22;32066;49.474;11.106;2022-07-23T02:01:26;23.50;70.90
46356;DHT22;32066;49.474;11.106;2022-07-23T02:03:53;23.50;70.10
46356;DHT22;32066;49.474;11.106;2022-07-23T02:06:20;23.50;70.20
46356;DHT22;32066;49.474;11.106;2022-07-23T02:08:47;23.60;69.70
46356;DHT22;32066;49.474;11.106;2022-07-23T02:11:14;23.60;70.00
46356;DHT22;32066;49.474;11.106;2022-07-23T02:13:42;23.50;69.80
46356;DHT22;32066;49.474;11.106;2022-07-23T02:16:09;23.50;69.50
46356;DHT22;32066;49.474;11.106;2022-07-23T02:18:36;23.40;68.70
46356;DHT22;32066;49.474;11.106;2022-07-23T02:21:03;23.40;69.10
46356;DHT22;32066;49.474;11.106;2022-07-23T02:23:30;23.40;69.30
46356;DHT22;32066;49.474;11.106;2022-07-23T02:25:57;23.50;69.20
46356;DHT22;32066;49.474;11.106;2022-07-23T02:28:24;23.50;69.50
46356;DHT22;32066;49.474;11.106;2022-07-23T02:30:52;23.50;69.90
46356;DHT22;32066;49.474;11.106;2022-07-23T02:33:19;23.60;69.70
46356;DHT22;32066;49.474;11.106;2022-07-23T02:35:46;23.60;69.70
46356;DHT22;32066;49.474;11.106;2022-07-23T02:38:13;23.60;69.60
46356;DHT22;32066;49.474;11.106;2022-07-23T02:40:40;23.60;69.70
46356;DHT22;32066;49.474;11.106;2022-07-23T02:43:07;23.60;70.40
46356;DHT22;32066;49.474;11.106;2022-07-23T02:45:34;23.60;70.40
46356;DHT22;32066;49.474;11.106;2022-07-23T02:48:02;23.60;69.60
46356;DHT22;32066;49.474;11.106;2022-07-23T02:50:29;23.60;69.50
46356;DHT22;32066;49.474;11.106;2022-07-23T02:52:58;23.60;69.40
46356;DHT22;32066;49.474;11.106;2022-07-23T02:55:25;23.50;69.60
46356;DHT22;32066;49.474;11.106;2022-07-23T02:57:52;23.50;70.10
46356;DHT22;32066;49.474;11.106;2022-07-23T03:00:19;23.40;70.70
46356;DHT22;32066;49.474;11.106;2022-07-23T03:02:46;23.40;70.70
46356;DHT22;32066;49.474;11.106;2022-07-23T03:05:15;23.40;70.70
46356;DHT22;32066;49.474;11.106;2022-07-23T03:07:43;23.40;70.70
46356;DHT22;32066;49.474;11.106;2022-07-23T03:10:09;23.40;71.20
46356;DHT22;32066;49.474;11.106;2022-07-23T03:12:36;23.30;71.00
46356;DHT22;32066;49.474;11.106;2022-07-23T03:15:04;23.30;70.80
46356;DHT22;32066;49.474;11.106;2022-07-23T03:17:31;23.20;70.60
46356;DHT22;32066;49.474;11.106;2022-07-23T03:19:58;23.00;71.40
46356;DHT22;32066;49.474;11.106;2022-07-23T03:22:26;23.00;71.70
46356;DHT22;32066;49.474;11.106;2022-07-23T03:24:53;23.00;71.90
46356;DHT22;32066;49.474;11.106;2022-07-23T03:27:24;23.00;71.10
46356;DHT22;32066;49.474;11.106;2022-07-23T03:29:52;23.00;70.80
46356;DHT22;32066;49.474;11.106;2022-07-23T03:32:20;23.00;70.80
46356;DHT22;32066;49.474;11.106;2022-07-23T03:34:47;23.00;70.80
46356;DHT22;32066;49.474;11.106;2022-07-23T03:37:14;23.00;71.20
46356;DHT22;32066;49.474;11.106;2022-07-23T03:39:43;22.90;71.20
46356;DHT22;32066;49.474;11.106;2022-07-23T03:42:10;22.90;71.50
46356;DHT22;32066;49.474;11.106;2022-07-23T03:44:37;22.90;71.60
46356;DHT22;32066;49.474;11.106;2022-07-23T03:47:05;22.80;71.50
46356;DHT22;32066;49.474;11.106;2022-07-23T03:49:32;22.70;71.60
46356;DHT22;32066;49.474;11.106;2022-07-23T03:52:00;22.70;72.10
46356;DHT22;32066;49.474;11.106;2022-07-23T03:54:27;22.70;72.20
46356;DHT22;32066;49.474;11.106;2022-07-23T03:56:55;22.80;71.70
46356;DHT22;32066;49.474;11.106;2022-07-23T03:59:22;22.70;71.20
46356;DHT22;32066;49.474;11.106;2022-07-23T04:01:49;22.70;71.10
46356;DHT22;32066;49.474;11.106;2022-07-23T04:04:16;22.80;71.20
46356;DHT22;32066;49.474;11.106;2022-07-23T04:06:44;22.70;71.10
46356;DHT22;32066;49.474;11.106;2022-07-23T04:09:11;22.80;71.00
46356;DHT22;32066;49.474;11.106;2022-07-23T04:11:38;22.70;70.40
46356;DHT22;32066;49.474;11.106;2022-07-23T04:14:07;22.70;70.30
46356;DHT22;32066;49.474;11.106;2022-07-23T04:16:34;22.70;70.50
46356;DHT22;32066;49.474;11.106;2022-07-23T04:19:01;22.60;70.80
46356;DHT22;32066;49.474;11.106;2022-07-23T04:21:33;22.60;70.70
46356;DHT22;32066;49.474;11.106;2022-07-23T04:24:00;22.60;70.90
46356;DHT22;32066;49.474;11.106;2022-07-23T04:26:27;22.60;70.70
46356;DHT22;32066;49.474;11.106;2022-07-23T04:28:54;22.70;70.80
46356;DHT22;32066;49.474;11.106;2022-07-23T04:31:23;22.70;70.80
46356;DHT22;32066;49.474;11.106;2022-07-23T04:33:50;22.70;70.30
46356;DHT22;32066;49.474;11.106;2022-07-23T04:36:17;22.50;70.70
46356;DHT22;32066;49.474;11.106;2022-07-23T04:38:44;22.50;70.70
46356;DHT22;32066;49.474;11.106;2022-07-23T04:41:11;22.60;70.20
46356;DHT22;32066;49.474;11.106;2022-07-23T04:43:38;22.70;69.90
46356;DHT22;32066;49.474;11.106;2022-07-23T04:46:05;22.60;69.90
46356;DHT22;32066;49.474;11.106;2022-07-23T04:48:41;22.60;69.80
46356;DHT22;32066;49.474;11.106;2022-07-23T04:51:09;22.70;69.50
46356;DHT22;32066;49.474;11.106;2022-07-23T04:53:37;22.60;69.40
46356;DHT22;32066;49.474;11.106;2022-07-23T04:56:04;22.70;69.40
46356;DHT22;32066;49.474;11.106;2022-07-23T04:58:32;22.70;69.20
46356;DHT22;32066;49.474;11.106;2022-07-23T05:00:59;22.70;68.90
46356;DHT22;32066;49.474;11.106;2022-07-23T05:03:27;22.80;68.90
46356;DHT22;32066;49.474;11.106;2022-07-23T05:05:56;22.80;69.10
46356;DHT22;32066;49.474;11.106;2022-07-23T05:08:23;22.90;68.70
46356;DHT22;32066;49.474;11.106;2022-07-23T05:10:53;22.90;68.10
46356;DHT22;32066;49.474;11.106;2022-07-23T05:13:20;23.00;68.00
46356;DHT22;32066;49.474;11.106;2022-07-23T05:15:50;23.00;67.80
46356;DHT22;32066;49.474;11.106;2022-07-23T05:18:17;23.00;67.60
46356;DHT22;32066;49.474;11.106;2022-07-23T05:20:44;23.00;67.90
46356;DHT22;32066;49.474;11.106;2022-07-23T05:23:16;22.90;67.70
46356;DHT22;32066;49.474;11.106;2022-07-23T05:25:42;22.90;68.10
46356;DHT22;32066;49.474;11.106;2022-07-23T05:28:10;22.90;67.30
46356;DHT22;32066;49.474;11.106;2022-07-23T05:30:37;23.00;67.60
46356;DHT22;32066;49.474;11.106;2022-07-23T05:33:07;23.10;66.30
46356;DHT22;32066;49.474;11.106;2022-07-23T05:35:34;23.20;66.40
46356;DHT22;32066;49.474;11.106;2022-07-23T05:38:21;23.20;65.70
46356;DHT22;32066;49.474;11.106;2022-07-23T05:40:49;23.20;65.10
46356;DHT22;32066;49.474;11.106;2022-07-23T05:43:19;23.20;64.70
46356;DHT22;32066;49.474;11.106;2022-07-23T05:45:46;23.30;64.90
46356;DHT22;32066;49.474;11.106;2022-07-23T05:48:13;23.20;64.60
46356;DHT22;32066;49.474;11.106;2022-07-23T05:50:55;23.30;65.10
46356;DHT22;32066;49.474;11.106;2022-07-23T05:53:31;23.40;64.20
46356;DHT22;32066;49.474;11.106;2022-07-23T05:56:18;23.50;64.00
46356;DHT22;32066;49.474;11.106;2022-07-23T05:58:45;23.60;63.90
46356;DHT22;32066;49.474;11.106;2022-07-23T06:01:15;23.70;63.30
46356;DHT22;32066;49.474;11.106;2022-07-23T06:03:52;23.90;62.80
46356;DHT22;32066;49.474;11.106;2022-07-23T06:06:19;24.00;62.30
46356;DHT22;32066;49.474;11.106;2022-07-23T06:08:47;24.10;62.20
46356;DHT22;32066;49.474;11.106;2022-07-23T06:11:15;24.00;61.90
46356;DHT22;32066;49.474;11.106;2022-07-23T06:13:42;24.00;61.40
46356;DHT22;32066;49.474;11.106;2022-07-23T06:16:09;23.90;62.00
46356;DHT22;32066;49.474;11.106;2022-07-23T06:18:36;23.90;61.90
46356;DHT22;32066;49.474;11.106;2022-07-23T06:21:03;23.90;61.30
46356;DHT22;32066;49.474;11.106;2022-07-23T06:23:32;24.00;60.30
46356;DHT22;32066;49.474;11.106;2022-07-23T06:26:00;24.00;60.60
46356;DHT22;32066;49.474;11.106;2022-07-23T06:28:28;24.10;60.80
46356;DHT22;32066;49.474;11.106;2022-07-23T06:30:55;24.30;60.40
46356;DHT22;32066;49.474;11.106;2022-07-23T06:33:23;24.40;59.70
46356;DHT22;32066;49.474;11.106;2022-07-23T06:35:49;24.60;59.20
46356;DHT22;32066;49.474;11.106;2022-07-23T06:38:16;24.50;58.60
46356;DHT22;32066;49.474;11.106;2022-07-23T06:40:43;24.40;58.60
46356;DHT22;32066;49.474;11.106;2022-07-23T06:43:12;24.50;58.50
46356;DHT22;32066;49.474;11.106;2022-07-23T06:45:43;24.40;58.60
46356;DHT22;32066;49.474;11.106;2022-07-23T06:48:10;24.50;58.80
46356;DHT22;32066;49.474;11.106;2022-07-23T06:50:37;24.70;58.20
46356;DHT22;32066;49.474;11.106;2022-07-23T06:53:04;24.90;57.90
46356;DHT22;32066;49.474;11.106;2022-07-23T06:55:31;24.90;57.00
46356;DHT22;32066;49.474;11.106;2022-07-23T06:57:58;25.00;57.30
46356;DHT22;32066;49.474;11.106;2022-07-23T07:00:26;25.10;56.80
46356;DHT22;32066;49.474;11.106;2022-07-23T07:02:53;25.30;56.80
46356;DHT22;32066;49.474;11.106;2022-07-23T07:05:21;25.40;56.90
46356;DHT22;32066;49.474;11.106;2022-07-23T07:07:48;25.50;56.50
46356;DHT22;32066;49.474;11.106;2022-07-23T07:10:15;25.60;56.00
46356;DHT22;32066;49.474;11.106;2022-07-23T07:12:43;25.50;56.30
46356;DHT22;32066;49.474;11.106;2022-07-23T07:15:10;25.50;56.30
46356;DHT22;32066;49.474;11.106;2022-07-23T07:17:38;25.50;56.60
46356;DHT22;32066;49.474;11.106;2022-07-23T07:20:06;25.50;56.40
46356;DHT22;32066;49.474;11.106;2022-07-23T07:22:33;25.50;56.70
46356;DHT22;32066;49.474;11.106;2022-07-23T07:25:00;25.60;56.80
46356;DHT22;32066;49.474;11.106;2022-07-23T07:27:27;25.60;56.70
46356;DHT22;32066;49.474;11.106;2022-07-23T07:29:54;25.50;57.00
46356;DHT22;32066;49.474;11.106;2022-07-23T07:32:21;25.50;57.10
46356;DHT22;32066;49.474;11.106;2022-07-23T07:34:49;25.40;57.10
46356;DHT22;32066;49.474;11.106;2022-07-23T07:37:16;25.50;57.20
46356;DHT22;32066;49.474;11.106;2022-07-23T07:39:43;25.40;56.90
46356;DHT22;32066;49.474;11.106;2022-07-23T07:42:11;25.40;57.00
46356;DHT22;32066;49.474;11.106;2022-07-23T07:44:38;25.40;57.10
46356;DHT22;32066;49.474;11.106;2022-07-23T07:47:05;25.40;56.90
46356;DHT22;32066;49.474;11.106;2022-07-23T07:49:33;25.40;57.20
46356;DHT22;32066;49.474;11.106;2022-07-23T07:52:01;25.40;57.20
46356;DHT22;32066;49.474;11.106;2022-07-23T07:54:28;25.30;57.30
46356;DHT22;32066;49.474;11.106;2022-07-23T07:56:55;25.30;57.60
46356;DHT22;32066;49.474;11.106;2022-07-23T07:59:22;25.30;58.20
46356;DHT22;32066;49.474;11.106;2022-07-23T08:01:49;25.20;60.20
46356;DHT22;32066;49.474;11.106;2022-07-23T08:04:15;25.20;60.70
46356;DHT22;32066;49.474;11.106;2022-07-23T08:06:43;25.10;61.50
46356;DHT22;32066;49.474;11.106;2022-07-23T08:09:11;24.90;62.80
46356;DHT22;32066;49.474;11.106;2022-07-23T08:11:38;24.80;63.20
46356;DHT22;32066;49.474;11.106;2022-07-23T08:14:04;24.80;64.10
46356;DHT22;32066;49.474;11.106;2022-07-23T08:16:31;24.80;64.50
46356;DHT22;32066;49.474;11.106;2022-07-23T08:18:58;24.80;65.00
46356;DHT22;32066;49.474;11.106;2022-07-23T08:21:25;24.80;65.70
46356;DHT22;32066;49.474;11.106;2022-07-23T08:23:52;24.90;65.70
46356;DHT22;32066;49.474;11.106;2022-07-23T08:26:20;25.00;64.60
46356;DHT22;32066;49.474;11.106;2022-07-23T08:28:47;25.20;65.50
46356;DHT22;32066;49.474;11.106;2022-07-23T08:31:14;25.30;64.30
46356;DHT22;32066;49.474;11.106;2022-07-23T08:33:42;25.30;64.80
46356;DHT22;32066;49.474;11.106;2022-07-23T08:36:09;25.40;63.90
46356;DHT22;32066;49.474;11.106;2022-07-23T08:38:35;25.40;64.30
46356;DHT22;32066;49.474;11.106;2022-07-23T08:41:02;25.40;63.80
46356;DHT22;32066;49.474;11.106;2022-07-23T08:43:32;25.50;63.60
46356;DHT22;32066;49.474;11.106;2022-07-23T08:46:01;25.60;64.10
46356;DHT22;32066;49.474;11.106;2022-07-23T08:48:30;25.50;64.60
46356;DHT22;32066;49.474;11.106;2022-07-23T08:50:59;25.40;63.30
46356;DHT22;32066;49.474;11.106;2022-07-23T08:53:27;25.50;62.00
46356;DHT22;32066;49.474;11.106;2022-07-23T08:55:55;25.20;63.70
46356;DHT22;32066;49.474;11.106;2022-07-23T08:58:23;25.20;64.10
46356;DHT22;32066;49.474;11.106;2022-07-23T09:00:51;25.20;63.40
46356;DHT22;32066;49.474;11.106;2022-07-23T09:03:20;25.10;63.60
46356;DHT22;32066;49.474;11.106;2022-07-23T09:05:49;25.10;64.30
46356;DHT22;32066;49.474;11.106;2022-07-23T09:08:18;25.10;63.20
46356;DHT22;32066;49.474;11.106;2022-07-23T09:10:50;24.80;61.80
46356;DHT22;32066;49.474;11.106;2022-07-23T09:13:34;24.50;63.10
46356;DHT22;32066;49.474;11.106;2022-07-23T09:16:05;24.00;65.10
46356;DHT22;32066;49.474;11.106;2022-07-23T09:18:37;23.50;66.70
46356;DHT22;32066;49.474;11.106;2022-07-23T09:21:07;23.20;67.40
46356;DHT22;32066;49.474;11.106;2022-07-23T09:23:37;23.10;69.00
46356;DHT22;32066;49.474;11.106;2022-07-23T09:26:17;23.10;68.60
46356;DHT22;32066;49.474;11.106;2022-07-23T09:28:51;22.90;70.50
46356;DHT22;32066;49.474;11.106;2022-07-23T09:31:20;22.50;71.60
46356;DHT22;32066;49.474;11.106;2022-07-23T09:33:47;22.70;72.00
46356;DHT22;32066;49.474;11.106;2022-07-23T09:36:14;22.70;70.00
46356;DHT22;32066;49.474;11.106;2022-07-23T09:38:49;22.70;71.10
46356;DHT22;32066;49.474;11.106;2022-07-23T09:41:16;22.70;70.30
46356;DHT22;32066;49.474;11.106;2022-07-23T09:43:44;22.70;71.00
46356;DHT22;32066;49.474;11.106;2022-07-23T09:46:20;22.40;71.20
46356;DHT22;32066;49.474;11.106;2022-07-23T09:48:48;22.00;72.40
46356;DHT22;32066;49.474;11.106;2022-07-23T09:51:15;22.10;72.60
46356;DHT22;32066;49.474;11.106;2022-07-23T09:53:44;21.90;73.20
46356;DHT22;32066;49.474;11.106;2022-07-23T09:56:12;22.00;74.00
46356;DHT22;32066;49.474;11.106;2022-07-23T09:58:40;22.10;73.90
46356;DHT22;32066;49.474;11.106;2022-07-23T10:01:13;22.10;74.50
46356;DHT22;32066;49.474;11.106;2022-07-23T10:03:42;22.00;76.10
46356;DHT22;32066;49.474;11.106;2022-07-23T10:06:29;22.40;74.90
46356;DHT22;32066;49.474;11.106;2022-07-23T10:09:16;22.70;72.70
46356;DHT22;32066;49.474;11.106;2022-07-23T10:12:14;23.00;72.10
46356;DHT22;32066;49.474;11.106;2022-07-23T10:14:57;23.30;71.00
46356;DHT22;32066;49.474;11.106;2022-07-23T10:17:24;23.50;70.90
46356;DHT22;32066;49.474;11.106;2022-07-23T10:19:52;23.60;70.20
46356;DHT22;32066;49.474;11.106;2022-07-23T10:22:20;23.70;69.80
46356;DHT22;32066;49.474;11.106;2022-07-23T10:25:04;23.80;69.30
46356;DHT22;32066;49.474;11.106;2022-07-23T10:27:54;23.80;69.70
46356;DHT22;32066;49.474;11.106;2022-07-23T10:30:30;23.90;69.10
46356;DHT22;32066;49.474;11.106;2022-07-23T10:33:15;24.00;70.10
46356;DHT22;32066;49.474;11.106;2022-07-23T10:35:49;24.10;69.30
46356;DHT22;32066;49.474;11.106;2022-07-23T10:38:21;24.20;69.60
46356;DHT22;32066;49.474;11.106;2022-07-23T10:40:55;24.20;69.00
46356;DHT22;32066;49.474;11.106;2022-07-23T10:43:22;24.40;69.60
46356;DHT22;32066;49.474;11.106;2022-07-23T10:45:49;24.50;69.50
46356;DHT22;32066;49.474;11.106;2022-07-23T10:48:18;24.50;69.20
46356;DHT22;32066;49.474;11.106;2022-07-23T10:51:08;23.70;70.90
46356;DHT22;32066;49.474;11.106;2022-07-23T10:53:55;23.10;73.90
46356;DHT22;32066;49.474;11.106;2022-07-23T10:57:04;23.50;72.30
46356;DHT22;32066;49.474;11.106;2022-07-23T11:02:38;23.80;72.40
46356;DHT22;32066;49.474;11.106;2022-07-23T11:05:06;23.80;72.20
46356;DHT22;32066;49.474;11.106;2022-07-23T11:07:36;23.90;71.80
46356;DHT22;32066;49.474;11.106;2022-07-23T11:10:05;23.90;73.20
46356;DHT22;32066;49.474;11.106;2022-07-23T11:12:34;23.70;72.90
46356;DHT22;32066;49.474;11.106;2022-07-23T11:15:06;23.40;74.50
46356;DHT22;32066;49.474;11.106;2022-07-23T11:17:35;23.00;76.60
46356;DHT22;32066;49.474;11.106;2022-07-23T11:20:20;23.00;77.20
46356;DHT22;32066;49.474;11.106;2022-07-23T11:26:55;22.80;78.90
46356;DHT22;32066;49.474;11.106;2022-07-23T11:29:44;23.20;75.90
46356;DHT22;32066;49.474;11.106;2022-07-23T11:32:39;23.60;74.50
46356;DHT22;32066;49.474;11.106;2022-07-23T11:35:20;23.80;73.50
46356;DHT22;32066;49.474;11.106;2022-07-23T11:37:49;24.00;72.30
46356;DHT22;32066;49.474;11.106;2022-07-23T11:40:19;24.10;71.70
46356;DHT22;32066;49.474;11.106;2022-07-23T11:42:57;24.20;71.40
46356;DHT22;32066;49.474;11.106;2022-07-23T11:45:31;24.30;71.20
46356;DHT22;32066;49.474;11.106;2022-07-23T11:47:58;24.50;70.40
46356;DHT22;32066;49.474;11.106;2022-07-23T11:50:25;24.60;70.30
46356;DHT22;32066;49.474;11.106;2022-07-23T11:52:52;24.60;70.00
46356;DHT22;32066;49.474;11.106;2022-07-23T11:55:20;24.60;70.10
46356;DHT22;32066;49.474;11.106;2022-07-23T11:57:47;24.50;68.70
46356;DHT22;32066;49.474;11.106;2022-07-23T12:00:17;24.60;69.80
46356;DHT22;32066;49.474;11.106;2022-07-23T12:02:46;24.70;69.00
46356;DHT22;32066;49.474;11.106;2022-07-23T12:05:14;24.80;68.50
46356;DHT22;32066;49.474;11.106;2022-07-23T12:07:43;24.80;68.60
46356;DHT22;32066;49.474;11.106;2022-07-23T12:10:18;25.00;68.10
46356;DHT22;32066;49.474;11.106;2022-07-23T12:12:47;24.90;68.00
46356;DHT22;32066;49.474;11.106;2022-07-23T12:15:18;24.90;67.60
46356;DHT22;32066;49.474;11.106;2022-07-23T12:17:48;25.00;67.80
46356;DHT22;32066;49.474;11.106;2022-07-23T12:20:18;25.10;67.40
46356;DHT22;32066;49.474;11.106;2022-07-23T12:22:46;25.30;66.70
46356;DHT22;32066;49.474;11.106;2022-07-23T12:25:15;25.40;66.20
46356;DHT22;32066;49.474;11.106;2022-07-23T12:27:43;25.60;65.90
46356;DHT22;32066;49.474;11.106;2022-07-23T12:30:23;25.70;66.40
46356;DHT22;32066;49.474;11.106;2022-07-23T12:32:52;26.00;65.70
46356;DHT22;32066;49.474;11.106;2022-07-23T12:35:21;26.00;63.40
46356;DHT22;32066;49.474;11.106;2022-07-23T12:37:49;26.10;63.80
46356;DHT22;32066;49.474;11.106;2022-07-23T12:40:29;26.10;62.00
46356;DHT22;32066;49.474;11.106;2022-07-23T12:42:57;26.30;62.40
46356;DHT22;32066;49.474;11.106;2022-07-23T12:45:27;26.50;60.30
46356;DHT22;32066;49.474;11.106;2022-07-23T12:48:01;26.20;60.00
46356;DHT22;32066;49.474;11.106;2022-07-23T12:50:54;26.10;60.60
46356;DHT22;32066;49.474;11.106;2022-07-23T12:53:23;26.20;60.90
46356;DHT22;32066;49.474;11.106;2022-07-23T12:55:57;26.50;59.80
46356;DHT22;32066;49.474;11.106;2022-07-23T12:58:24;26.70;60.10
46356;DHT22;32066;49.474;11.106;2022-07-23T13:00:59;26.80;60.20
46356;DHT22;32066;49.474;11.106;2022-07-23T13:03:32;27.10;58.30
46356;DHT22;32066;49.474;11.106;2022-07-23T13:06:02;27.00;56.90
46356;DHT22;32066;49.474;11.106;2022-07-23T13:08:30;26.80;57.50
46356;DHT22;32066;49.474;11.106;2022-07-23T13:10:58;26.90;58.20
46356;DHT22;32066;49.474;11.106;2022-07-23T13:13:26;26.70;57.10
46356;DHT22;32066;49.474;11.106;2022-07-23T13:15:54;26.60;57.90
46356;DHT22;32066;49.474;11.106;2022-07-23T13:18:22;26.50;58.70
46356;DHT22;32066;49.474;11.106;2022-07-23T13:20:50;26.60;58.00
46356;DHT22;32066;49.474;11.106;2022-07-23T13:23:17;26.80;57.80
46356;DHT22;32066;49.474;11.106;2022-07-23T13:25:45;27.10;57.70
46356;DHT22;32066;49.474;11.106;2022-07-23T13:28:12;27.20;57.00
46356;DHT22;32066;49.474;11.106;2022-07-23T13:30:40;27.30;56.50
46356;DHT22;32066;49.474;11.106;2022-07-23T13:33:07;27.20;55.60
46356;DHT22;32066;49.474;11.106;2022-07-23T13:35:36;27.10;56.10
46356;DHT22;32066;49.474;11.106;2022-07-23T13:38:03;27.10;56.10
46356;DHT22;32066;49.474;11.106;2022-07-23T13:40:33;27.10;55.80
46356;DHT22;32066;49.474;11.106;2022-07-23T13:43:00;27.00;55.80
46356;DHT22;32066;49.474;11.106;2022-07-23T13:45:27;26.60;56.20
46356;DHT22;32066;49.474;11.106;2022-07-23T13:47:54;26.80;56.60
46356;DHT22;32066;49.474;11.106;2022-07-23T13:50:21;27.20;56.10
46356;DHT22;32066;49.474;11.106;2022-07-23T13:52:50;27.50;55.50
46356;DHT22;32066;49.474;11.106;2022-07-23T13:55:17;27.20;55.40
46356;DHT22;32066;49.474;11.106;2022-07-23T13:57:44;27.20;56.10
46356;DHT22;32066;49.474;11.106;2022-07-23T14:00:12;27.20;55.50
46356;DHT22;32066;49.474;11.106;2022-07-23T14:02:40;27.20;55.60
46356;DHT22;32066;49.474;11.106;2022-07-23T14:05:09;27.20;56.00
46356;DHT22;32066;49.474;11.106;2022-07-23T14:07:38;26.90;56.20
46356;DHT22;32066;49.474;11.106;2022-07-23T14:10:07;26.90;56.50
46356;DHT22;32066;49.474;11.106;2022-07-23T14:12:35;27.00;56.70
46356;DHT22;32066;49.474;11.106;2022-07-23T14:15:03;27.30;56.00
46356;DHT22;32066;49.474;11.106;2022-07-23T14:17:30;27.50;56.10
46356;DHT22;32066;49.474;11.106;2022-07-23T14:19:58;27.50;55.50
46356;DHT22;32066;49.474;11.106;2022-07-23T14:22:25;27.60;55.30
46356;DHT22;32066;49.474;11.106;2022-07-23T14:24:52;27.80;55.30
46356;DHT22;32066;49.474;11.106;2022-07-23T14:27:20;28.00;54.90
46356;DHT22;32066;49.474;11.106;2022-07-23T14:29:47;28.00;54.60
46356;DHT22;32066;49.474;11.106;2022-07-23T14:32:14;27.80;54.20
46356;DHT22;32066;49.474;11.106;2022-07-23T14:34:41;27.60;54.90
46356;DHT22;32066;49.474;11.106;2022-07-23T14:37:09;27.60;55.70
46356;DHT22;32066;49.474;11.106;2022-07-23T14:39:36;27.70;55.20
46356;DHT22;32066;49.474;11.106;2022-07-23T14:42:04;27.70;55.30
46356;DHT22;32066;49.474;11.106;2022-07-23T14:44:32;27.70;54.90
46356;DHT22;32066;49.474;11.106;2022-07-23T14:46:59;27.80;54.90
46356;DHT22;32066;49.474;11.106;2022-07-23T14:49:26;27.70;54.90
46356;DHT22;32066;49.474;11.106;2022-07-23T14:51:53;27.90;55.70
46356;DHT22;32066;49.474;11.106;2022-07-23T14:54:20;28.20;54.80
46356;DHT22;32066;49.474;11.106;2022-07-23T14:56:47;28.50;54.10
46356;DHT22;32066;49.474;11.106;2022-07-23T14:59:14;28.50;53.60
46356;DHT22;32066;49.474;11.106;2022-07-23T15:01:42;28.60;52.80
46356;DHT22;32066;49.474;11.106;2022-07-23T15:04:09;28.60;52.20
46356;DHT22;32066;49.474;11.106;2022-07-23T15:06:36;28.50;52.50
46356;DHT22;32066;49.474;11.106;2022-07-23T15:09:04;28.50;51.40
46356;DHT22;32066;49.474;11.106;2022-07-23T15:11:32;28.60;51.30
46356;DHT22;32066;49.474;11.106;2022-07-23T15:13:59;28.70;51.20
46356;DHT22;32066;49.474;11.106;2022-07-23T15:16:26;28.80;50.70
46356;DHT22;32066;49.474;11.106;2022-07-23T15:18:55;28.90;50.60
46356;DHT22;32066;49.474;11.106;2022-07-23T15:21:22;28.90;49.40
46356;DHT22;32066;49.474;11.106;2022-07-23T15:23:49;28.90;50.10
46356;DHT22;32066;49.474;11.106;2022-07-23T15:26:16;28.90;48.50
46356;DHT22;32066;49.474;11.106;2022-07-23T15:28:43;29.00;48.30
46356;DHT22;32066;49.474;11.106;2022-07-23T15:31:10;29.10;48.00
46356;DHT22;32066;49.474;11.106;2022-07-23T15:33:37;29.30;47.70